Terminal Aerodrome Forecast
Issued by NWS St Louis, MO

Home | Current Version | Previous Version | Text Only | Print | Product List | Glossary On
Versions: 1 2 3 4 5 6 7 8 9 10 11 12 13 14 15 16 17 18 19 20 21 22 23 24 25 26 27 28 29
000
FTUS43 KLSX 012200 AAC
TAFCOU
TAF AMD
KCOU 012253Z 0123/0218 20012KT 3SM +TSRA BR BKN025CB
     FM020000 24009KT P6SM VCTS BKN050CB
      TEMPO 0200/0202 3SM TSRA OVC035CB
     FM020200 20007KT P6SM -SHRA VCTS BKN050CB
     FM020500 VRB04KT P6SM SCT050 BKN100=

USA.gov is the U.S. government's official web portal to all federal, state and local government web resources and services.